GB-0025 weather

Dorset Gliding Club (Eyres Field)
England, United Kingdom

Public forecast

Using degrees Celsius for public forecast. Weather courtesy of forecast.io.

METAR (pilot weather report)

Report is more than 6 hours old.

Closest report is Bournemouth Airport, 14.9 nm (27.7 km) ENE. Retrieved 2019/09/22 22:20 UTC (6 hours ago):

EGHH 222220Z 24005KT CAVOK 15/14 Q1006

TAF (pilot weather forecast)

Forecast is more than 12 hours old.

Closest forecast is Bournemouth Airport, 14.9 nm (27.7 km) ENE. Retrieved 2013/12/01 21:21 UTC (6 years ago):

TAF TAF EGHH 010016Z 3021/0106 CNL